Bodaybo Airport


Codes: UIKB/ODO
Name: Bodaybo Airport
City: Bodaybo
Country: Russia
Elevation: 919 ft.
Wikipedia:

Photos at Bodaybo Airport


   Photos courtesy of SpottingLog. You can add your own sightings and photos by signing up for a free trial today.



No photos found.

Weather at Bodaybo Airport


Time (UTC)DescriptionTempratureWindCloud coverageVisibilityPressureHumidity
16-Jun-2024 00:00Light Rain10°C9 mph, W100%10000m1008hPa74%
16-Jun-2024 03:00Light Rain10°C9 mph, NW99%10000m1008hPa70%
16-Jun-2024 06:00Overcast Clouds13°C4 mph, NW96%10000m1008hPa57%
16-Jun-2024 09:00Overcast Clouds15°C0 mph, NW99%10000m1007hPa49%
16-Jun-2024 12:00Overcast Clouds13°C2 mph, SE87%10000m1006hPa68%
16-Jun-2024 15:00Few Clouds8°C4 mph, E13%10000m1006hPa74%
16-Jun-2024 18:00Scattered Clouds7°C4 mph, E39%10000m1006hPa78%
16-Jun-2024 21:00Overcast Clouds9°C2 mph, E97%10000m1005hPa79%
17-Jun-2024 00:00Overcast Clouds12°C2 mph, SE98%10000m1005hPa69%
17-Jun-2024 03:00Overcast Clouds11°C4 mph, SW100%10000m1006hPa77%
17-Jun-2024 06:00Overcast Clouds12°C4 mph, S100%10000m1006hPa75%
17-Jun-2024 09:00Overcast Clouds13°C4 mph, S98%10000m1006hPa73%
17-Jun-2024 12:00Overcast Clouds11°C2 mph, SW99%10000m1007hPa84%
17-Jun-2024 15:00Overcast Clouds8°C2 mph, SW92%10000m1008hPa94%
17-Jun-2024 18:00Broken Clouds6°C0 mph, NE54%10000m1008hPa95%
17-Jun-2024 21:00Clear Sky8°C0 mph, SE7%10000m1009hPa92%
18-Jun-2024 00:00Clear Sky14°C0 mph, SE5%10000m1007hPa71%
18-Jun-2024 03:00Scattered Clouds19°C2 mph, E40%10000m1005hPa51%
18-Jun-2024 06:00Broken Clouds20°C4 mph, E66%10000m1004hPa40%
18-Jun-2024 09:00Scattered Clouds20°C7 mph, E40%10000m1003hPa43%
18-Jun-2024 12:00Broken Clouds15°C4 mph, E70%10000m1003hPa70%
18-Jun-2024 15:00Overcast Clouds11°C4 mph, E91%10000m1003hPa75%
18-Jun-2024 18:00Overcast Clouds11°C4 mph, E95%10000m1002hPa72%
18-Jun-2024 21:00Overcast Clouds12°C2 mph, E100%10000m1002hPa73%
19-Jun-2024 00:00Overcast Clouds15°C4 mph, SE100%10000m1002hPa62%
19-Jun-2024 03:00Overcast Clouds18°C4 mph, SE97%10000m1001hPa61%
19-Jun-2024 06:00Overcast Clouds17°C4 mph, S99%10000m1001hPa72%
19-Jun-2024 09:00Overcast Clouds18°C4 mph, SE100%10000m1002hPa65%
19-Jun-2024 12:00Overcast Clouds16°C2 mph, E100%10000m1002hPa80%
19-Jun-2024 15:00Overcast Clouds13°C4 mph, E89%10000m1002hPa86%
19-Jun-2024 18:00Broken Clouds10°C2 mph, E83%10000m1003hPa93%
19-Jun-2024 21:00Few Clouds12°C2 mph, E24%10000m1002hPa89%
20-Jun-2024 00:00Broken Clouds17°C2 mph, E62%10000m1001hPa69%
20-Jun-2024 03:00Overcast Clouds20°C2 mph, E100%10000m1000hPa60%
20-Jun-2024 06:00Overcast Clouds22°C2 mph, NE100%10000m1000hPa59%
20-Jun-2024 09:00Overcast Clouds21°C2 mph, SW100%10000m1000hPa70%
20-Jun-2024 12:00Light Rain16°C4 mph, SW100%10000m1003hPa91%
20-Jun-2024 15:00Light Rain15°C4 mph, SW100%10000m1004hPa99%
20-Jun-2024 18:00Light Rain13°C4 mph, SW100%10000m1006hPa97%
20-Jun-2024 21:00Light Rain13°C2 mph, W100%10000m1007hPa97%